Time;durP1;ratioP1;P1;durP2;ratioP2;P2;SDS_P1;SDS_P2;PMS_P1;PMS_P2;Temp;Humidity;BMP_temperature;BMP_pressure;BME280_temperature;BME280_humidity;BME280_pressure;Samples;Min_cycle;Max_cycle;Signal;HPM_P1;HPM_P2
2023/08/13 00:00:33;;;;;;;4.38;2.50;;;17.10;1.00;;;;;;5039081;28;20586;-80
2023/08/13 00:02:59;;;;;;;4.32;2.90;;;16.90;1.00;;;;;;5039014;28;20183;-82
2023/08/13 00:05:25;;;;;;;4.03;2.65;;;17.00;1.00;;;;;;5020566;28;20206;-82
2023/08/13 00:07:51;;;;;;;3.95;2.85;;;17.00;1.00;;;;;;5020738;28;20199;-80
2023/08/13 00:10:16;;;;;;;5.63;3.13;;;16.90;1.00;;;;;;5038988;28;20720;-80
2023/08/13 00:12:42;;;;;;;7.88;2.88;;;16.90;1.00;;;;;;5020655;28;20179;-81
2023/08/13 00:15:10;;;;;;;7.25;2.63;;;17.10;1.00;;;;;;5019776;28;20213;-80
2023/08/13 00:17:35;;;;;;;4.25;2.67;;;16.90;99.90;;;;;;5020635;28;20202;-81
2023/08/13 00:20:01;;;;;;;4.85;2.67;;;17.00;99.90;;;;;;5038765;28;20186;-80
2023/08/13 00:22:27;;;;;;;4.82;2.80;;;16.80;99.90;;;;;;5021037;28;20218;-80
2023/08/13 00:24:54;;;;;;;5.38;3.00;;;17.00;99.90;;;;;;5020349;28;20662;-80
2023/08/13 00:27:19;;;;;;;5.07;2.55;;;16.90;99.90;;;;;;5038731;28;20222;-80
2023/08/13 00:29:45;;;;;;;5.43;2.95;;;17.10;99.90;;;;;;5039015;28;20190;-80
2023/08/13 00:32:10;;;;;;;3.15;2.60;;;16.50;99.90;;;;;;5038479;28;20179;-80
2023/08/13 00:34:36;;;;;;;5.30;2.58;;;16.50;99.90;;;;;;5021250;28;20595;-81
2023/08/13 00:37:02;;;;;;;3.85;2.45;;;16.80;99.90;;;;;;5021408;28;20262;-81
2023/08/13 00:39:27;;;;;;;3.58;2.65;;;16.80;1.00;;;;;;5021092;28;20551;-81
2023/08/13 00:41:53;;;;;;;2.67;2.40;;;16.50;1.00;;;;;;5020707;28;20179;-80
2023/08/13 00:44:19;;;;;;;4.30;2.65;;;16.70;1.00;;;;;;5038360;28;20712;-80
2023/08/13 00:46:45;;;;;;;5.75;2.65;;;16.70;1.00;;;;;;5020830;28;20199;-80
2023/08/13 00:49:13;;;;;;;6.13;2.92;;;16.40;1.00;;;;;;5038055;28;20175;-81
2023/08/13 00:51:39;;;;;;;5.20;2.50;;;16.50;1.00;;;;;;5020582;28;20202;-80
2023/08/13 00:54:07;;;;;;;8.13;2.85;;;16.40;1.00;;;;;;5021696;28;20665;-80
2023/08/13 00:56:35;;;;;;;3.47;2.47;;;16.50;99.90;;;;;;5037254;28;20541;-79
2023/08/13 00:59:00;;;;;;;4.15;2.97;;;16.90;1.00;;;;;;5016117;28;20175;-80
2023/08/13 01:01:26;;;;;;;5.85;2.85;;;17.00;99.90;;;;;;5034167;28;20225;-80
2023/08/13 01:03:52;;;;;;;4.75;2.58;;;16.70;82.70;;;;;;5033901;28;20191;-80
2023/08/13 01:06:50;;;;;;;4.00;2.40;;;16.60;99.90;;;;;;5018834;28;20211;-80
2023/08/13 01:09:50;;;;;;;3.50;2.08;;;16.50;1.00;;;;;;5015916;28;20675;-80
2023/08/13 01:12:27;;;;;;;3.67;2.50;;;17.00;1.00;;;;;;5015424;28;20220;-81
2023/08/13 01:15:07;;;;;;;6.32;2.30;;;16.90;1.00;;;;;;5032865;28;20170;-81
2023/08/13 01:17:35;;;;;;;3.53;2.22;;;16.50;1.00;;;;;;5016967;28;20241;-80
2023/08/13 01:20:05;;;;;;;4.60;2.05;;;16.80;99.90;;;;;;5017455;28;20268;-81
2023/08/13 01:22:35;;;;;;;5.22;2.53;;;16.50;99.90;;;;;;5035204;28;20174;-80
2023/08/13 01:25:00;;;;;;;3.53;2.35;;;16.60;1.00;;;;;;5035024;28;20296;-81
2023/08/13 01:27:37;;;;;;;4.75;2.20;;;16.20;1.00;;;;;;5017042;28;20669;-81
2023/08/13 01:30:10;;;;;;;3.25;2.80;;;16.00;99.90;;;;;;5017491;28;20752;-80
2023/08/13 01:32:42;;;;;;;5.40;2.50;;;15.70;99.90;;;;;;5016994;28;20206;-80
2023/08/13 01:35:09;;;;;;;2.85;2.60;;;16.10;99.90;;;;;;5035123;28;20868;-80
2023/08/13 01:37:36;;;;;;;5.03;2.78;;;15.70;1.00;;;;;;5016856;28;20206;-81
2023/08/13 01:40:03;;;;;;;4.70;3.30;;;15.80;1.00;;;;;;5034828;28;20186;-82
2023/08/13 01:42:32;;;;;;;3.72;2.72;;;15.80;1.00;;;;;;5034564;28;20171;-80
2023/08/13 01:44:58;;;;;;;4.55;2.67;;;15.80;1.00;;;;;;5016524;28;20226;-81
2023/08/13 01:47:24;;;;;;;4.05;2.90;;;16.00;1.00;;;;;;5035090;28;20206;-79
2023/08/13 01:49:49;;;;;;;7.15;3.38;;;16.10;1.00;;;;;;5034850;28;20171;-80
2023/08/13 01:52:15;;;;;;;4.80;3.15;;;16.20;99.90;;;;;;5034708;28;20182;-81
2023/08/13 01:54:40;;;;;;;4.30;3.60;;;16.30;99.90;;;;;;5034823;28;20182;-80
2023/08/13 01:57:06;;;;;;;4.07;2.70;;;16.30;99.90;;;;;;5034498;28;20285;-80
2023/08/13 01:59:31;;;;;;;3.70;2.83;;;16.40;99.90;;;;;;5017212;28;20186;-81
2023/08/13 02:01:57;;;;;;;5.47;2.97;;;16.30;68.90;;;;;;5016538;28;20641;-80
2023/08/13 02:04:23;;;;;;;3.58;2.90;;;16.20;99.90;;;;;;5034568;28;20203;-80
2023/08/13 02:06:48;;;;;;;4.05;3.42;;;16.20;99.90;;;;;;5036670;28;20273;-80
2023/08/13 02:09:14;;;;;;;4.32;3.42;;;15.90;99.90;;;;;;5020647;28;20221;-80
2023/08/13 02:11:39;;;;;;;5.78;3.95;;;16.00;99.90;;;;;;5020851;28;20183;-80
2023/08/13 02:14:05;;;;;;;4.63;4.20;;;15.80;1.00;;;;;;5020198;28;20210;-80
2023/08/13 02:16:31;;;;;;;6.28;4.72;;;16.10;1.00;;;;;;5020638;28;20178;-81
2023/08/13 02:18:56;;;;;;;5.85;3.78;;;15.70;1.00;;;;;;5038105;28;20718;-80
2023/08/13 02:21:22;;;;;;;5.05;4.38;;;15.80;1.00;;;;;;5038275;28;20269;-80
2023/08/13 02:23:47;;;;;;;5.20;4.50;;;15.40;1.00;;;;;;5038034;28;20186;-80
2023/08/13 02:26:14;;;;;;;5.80;3.63;;;15.60;1.00;;;;;;5020353;28;20265;-80
2023/08/13 02:28:43;;;;;;;6.25;4.30;;;15.40;1.00;;;;;;5037961;28;20202;-80
2023/08/13 02:31:08;;;;;;;4.00;3.60;;;15.70;11.10;;;;;;5037845;28;20736;-80
2023/08/13 02:33:34;;;;;;;4.85;3.72;;;15.80;9.60;;;;;;5038016;28;20323;-80
2023/08/13 02:35:59;;;;;;;5.53;4.97;;;15.70;8.20;;;;;;5037703;28;20201;-80
2023/08/13 02:38:25;;;;;;;6.30;5.15;;;15.90;13.30;;;;;;5019889;28;20206;-80
2023/08/13 02:40:50;;;;;;;4.82;4.32;;;16.00;1.00;;;;;;5037653;28;20186;-80
2023/08/13 02:43:16;;;;;;;5.22;4.78;;;15.90;1.00;;;;;;5019745;28;20199;-81
2023/08/13 02:45:41;;;;;;;5.80;4.50;;;16.00;1.00;;;;;;5036026;28;20213;-80
2023/08/13 02:48:07;;;;;;;4.70;4.22;;;16.00;1.00;;;;;;5018345;28;20205;-79
2023/08/13 02:50:33;;;;;;;6.55;4.43;;;16.10;1.00;;;;;;5035321;28;20182;-80
2023/08/13 02:52:58;;;;;;;9.75;5.50;;;16.00;1.00;;;;;;5035502;28;20664;-80
2023/08/13 02:55:24;;;;;;;4.78;4.13;;;16.20;1.00;;;;;;5035515;28;20175;-80
2023/08/13 02:57:49;;;;;;;5.32;4.32;;;16.00;1.00;;;;;;5017486;28;20205;-80
2023/08/13 03:00:15;;;;;;;7.20;5.97;;;16.20;1.00;;;;;;5035275;28;20549;-80
2023/08/13 03:02:41;;;;;;;4.65;4.22;;;16.10;1.00;;;;;;5035373;28;20309;-79
2023/08/13 03:05:06;;;;;;;7.35;6.00;;;16.40;1.00;;;;;;5035898;28;20207;-80
2023/08/13 03:07:32;;;;;;;6.25;5.65;;;16.20;1.00;;;;;;5019190;28;20230;-80
2023/08/13 03:09:58;;;;;;;5.03;4.53;;;16.20;1.00;;;;;;5018817;28;20191;-80
2023/08/13 03:12:23;;;;;;;5.35;4.95;;;16.30;1.00;;;;;;5019056;28;20207;-80
2023/08/13 03:14:49;;;;;;;6.28;5.65;;;16.40;1.00;;;;;;5018760;28;20175;-80
2023/08/13 03:17:14;;;;;;;6.68;5.40;;;16.30;99.90;;;;;;5019026;28;20225;-80
2023/08/13 03:19:40;;;;;;;5.20;4.50;;;16.40;99.90;;;;;;5036705;28;20183;-82
2023/08/13 03:22:06;;;;;;;5.53;4.97;;;16.50;99.90;;;;;;5018679;28;20178;-80
2023/08/13 03:24:31;;;;;;;5.50;5.00;;;16.20;99.90;;;;;;5036184;28;20215;-82
2023/08/13 03:26:57;;;;;;;5.03;4.45;;;16.10;1.00;;;;;;5018441;28;20230;-80
2023/08/13 03:29:22;;;;;;;5.22;4.72;;;16.00;99.90;;;;;;5036602;28;20171;-80
2023/08/13 03:31:49;;;;;;;5.22;4.40;;;16.10;99.90;;;;;;5018691;28;20182;-81
2023/08/13 03:34:14;;;;;;;4.70;4.30;;;16.00;99.90;;;;;;5035929;28;20582;-80
2023/08/13 03:36:40;;;;;;;5.25;4.75;;;15.90;1.00;;;;;;5036302;28;20248;-81
2023/08/13 03:39:05;;;;;;;5.75;4.30;;;15.80;1.00;;;;;;5035814;28;20545;-80
2023/08/13 03:41:31;;;;;;;4.32;4.00;;;16.00;1.00;;;;;;5018209;28;20246;-81
2023/08/13 03:43:56;;;;;;;6.40;4.20;;;16.60;99.90;;;;;;5035979;28;20681;-79
2023/08/13 03:46:22;;;;;;;4.50;3.72;;;16.10;99.90;;;;;;5035414;28;20225;-81
2023/08/13 03:48:47;;;;;;;5.15;4.13;;;16.10;99.90;;;;;;5036350;28;20270;-80
2023/08/13 03:51:13;;;;;;;4.38;3.97;;;16.00;99.90;;;;;;5035733;28;20645;-80
2023/08/13 03:53:39;;;;;;;5.78;4.30;;;16.00;1.00;;;;;;5035661;28;20199;-80
2023/08/13 03:56:05;;;;;;;7.00;4.82;;;16.00;1.00;;;;;;5035124;28;20179;-80
2023/08/13 03:58:31;;;;;;;4.70;4.30;;;16.10;1.00;;;;;;5017663;28;20260;-80
2023/08/13 04:01:04;;;;;;;4.57;4.13;;;15.90;1.00;;;;;;5035165;28;20175;-80
2023/08/13 04:03:29;;;;;;;6.68;4.88;;;15.90;1.00;;;;;;5017358;28;20555;-80
2023/08/13 04:05:55;;;;;;;4.20;3.47;;;16.10;1.00;;;;;;5017088;28;20206;-80
2023/08/13 04:08:20;;;;;;;4.90;4.32;;;16.30;99.90;;;;;;5017253;28;20206;-80
2023/08/13 04:10:46;;;;;;;6.95;4.35;;;15.90;99.90;;;;;;5017421;28;20194;-81
2023/08/13 04:13:11;;;;;;;5.47;4.18;;;16.10;99.90;;;;;;5016875;28;20261;-80
2023/08/13 04:15:37;;;;;;;4.63;4.18;;;16.20;99.90;;;;;;5017267;28;20206;-80
2023/08/13 04:18:03;;;;;;;4.28;3.85;;;16.40;71.40;;;;;;5035030;28;20199;-80
2023/08/13 04:20:28;;;;;;;4.13;3.70;;;16.20;1.00;;;;;;5016745;28;20644;-80
2023/08/13 04:22:54;;;;;;;5.93;4.10;;;16.40;1.00;;;;;;5034607;28;20206;-80
2023/08/13 04:25:19;;;;;;;5.38;4.20;;;16.30;1.00;;;;;;5016508;28;20202;-80
2023/08/13 04:27:45;;;;;;;5.50;3.80;;;16.20;1.00;;;;;;5034183;28;20191;-80
2023/08/13 04:30:11;;;;;;;4.68;4.28;;;16.40;1.00;;;;;;5015800;28;20660;-80
2023/08/13 04:32:40;;;;;;;4.13;3.65;;;16.20;1.00;;;;;;5031503;28;20178;-81
2023/08/13 04:35:39;;;;;;;5.03;3.75;;;16.20;1.00;;;;;;5017338;28;20198;-80
2023/08/13 04:38:06;;;;;;;4.82;4.00;;;17.20;1.00;;;;;;5032754;28;20209;-82
2023/08/13 04:40:37;;;;;;;5.70;3.78;;;16.30;1.00;;;;;;5016752;28;20266;-81
2023/08/13 04:43:30;;;;;;;4.55;3.47;;;16.30;1.00;;;;;;5035347;28;20210;-81
2023/08/13 04:45:56;;;;;;;4.25;3.75;;;16.50;1.00;;;;;;5015972;28;20226;-81
2023/08/13 04:48:45;;;;;;;4.15;3.72;;;16.60;1.00;;;;;;5015743;28;20278;-81
2023/08/13 04:51:22;;;;;;;4.63;4.22;;;16.80;1.00;;;;;;5032512;28;20182;-81
2023/08/13 04:53:57;;;;;;;4.90;3.80;;;16.80;1.00;;;;;;5044757;28;20191;-80
2023/08/13 04:56:25;;;;;;;4.13;3.83;;;17.00;1.00;;;;;;5031341;28;20472;-81
2023/08/13 04:58:56;;;;;;;4.72;3.50;;;17.00;1.00;;;;;;5032326;28;20183;-82
2023/08/13 05:01:26;;;;;;;3.10;2.70;;;17.30;99.90;;;;;;5029599;28;20680;-80
2023/08/13 05:03:52;;;;;;;4.78;3.10;;;17.40;99.90;;;;;;5046575;28;20203;-80
2023/08/13 05:06:28;;;;;;;4.05;3.38;;;17.60;8.40;;;;;;5029865;28;20182;-81
2023/08/13 05:09:27;;;;;;;3.35;2.78;;;17.70;25.40;;;;;;5047153;28;20197;-82
2023/08/13 05:12:16;;;;;;;2.60;2.40;;;18.10;99.90;;;;;;5030944;28;20191;-81
2023/08/13 05:14:46;;;;;;;3.70;2.60;;;19.00;1.00;;;;;;5029906;28;20179;-81
2023/08/13 05:17:19;;;;;;;3.05;2.50;;;20.10;1.00;;;;;;5013401;28;20202;-82
2023/08/13 05:19:48;;;;;;;5.03;2.45;;;20.90;99.90;;;;;;5029692;28;20179;-80
2023/08/13 05:22:16;;;;;;;2.83;2.53;;;21.40;1.00;;;;;;5027235;28;20550;-82
2023/08/13 05:24:42;;;;;;;2.58;2.10;;;21.40;1.00;;;;;;5013869;28;20215;-80
2023/08/13 05:27:09;;;;;;;2.25;2.00;;;21.70;1.00;;;;;;5029981;28;20199;-79
2023/08/13 05:30:10;;;;;;;3.10;2.38;;;21.70;1.00;;;;;;5046512;28;20186;-81
2023/08/13 05:32:41;;;;;;;2.30;2.10;;;22.00;1.00;;;;;;5049239;28;20182;-80
2023/08/13 05:35:08;;;;;;;2.25;2.00;;;22.50;1.00;;;;;;5015291;28;20492;-82
2023/08/13 05:37:35;;;;;;;2.30;1.90;;;22.40;1.00;;;;;;5015290;28;20656;-81
2023/08/13 05:40:01;;;;;;;2.13;1.92;;;22.50;1.00;;;;;;5030793;28;20190;-81
2023/08/13 05:42:27;;;;;;;3.83;2.40;;;22.40;1.00;;;;;;4998091;28;20186;-80
2023/08/13 05:44:54;;;;;;;2.38;2.20;;;21.70;1.00;;;;;;5031790;28;20206;-81
2023/08/13 05:47:22;;;;;;;2.40;2.20;;;21.60;1.00;;;;;;5048745;28;20195;-82
2023/08/13 05:49:47;;;;;;;3.58;2.17;;;21.80;1.00;;;;;;5049553;28;20175;-80
2023/08/13 05:52:14;;;;;;;2.75;2.00;;;22.10;1.00;;;;;;5030945;28;20202;-81
2023/08/13 05:54:40;;;;;;;2.88;2.08;;;22.20;1.00;;;;;;5014872;28;20179;-80
2023/08/13 05:57:05;;;;;;;4.85;2.40;;;22.50;1.00;;;;;;5030924;28;20202;-79
2023/08/13 05:59:33;;;;;;;2.35;2.10;;;22.50;1.00;;;;;;5031643;28;20668;-82
2023/08/13 06:01:58;;;;;;;2.40;2.13;;;22.30;1.00;;;;;;5014676;28;20262;-80
2023/08/13 06:04:26;;;;;;;2.85;1.95;;;22.20;1.00;;;;;;5030807;28;20210;-80
2023/08/13 06:06:53;;;;;;;3.22;2.00;;;22.30;1.00;;;;;;5030693;28;20222;-80
2023/08/13 06:09:19;;;;;;;3.95;2.20;;;22.60;1.00;;;;;;5031033;28;20243;-81
2023/08/13 06:11:45;;;;;;;2.10;1.80;;;22.60;1.00;;;;;;5029584;28;20171;-81
2023/08/13 06:14:26;;;;;;;4.57;2.50;;;22.30;1.00;;;;;;5031439;28;20217;-80
2023/08/13 06:16:55;;;;;;;2.45;1.85;;;22.20;1.00;;;;;;5033246;28;20202;-79
2023/08/13 06:19:21;;;;;;;3.67;2.58;;;21.90;1.00;;;;;;5015071;28;20183;-81
2023/08/13 06:21:46;;;;;;;2.50;2.10;;;21.60;1.00;;;;;;5021979;28;20198;-82
2023/08/13 06:24:12;;;;;;;3.58;2.60;;;21.70;1.00;;;;;;5032722;28;20203;-83
2023/08/13 06:26:38;;;;;;;3.13;2.55;;;22.20;1.00;;;;;;5020502;28;20549;-80
2023/08/13 06:29:03;;;;;;;2.45;1.90;;;22.90;1.00;;;;;;5025636;28;20175;-79
2023/08/13 06:31:29;;;;;;;3.47;2.25;;;24.10;1.00;;;;;;5039988;28;20175;-80
2023/08/13 06:33:54;;;;;;;2.58;1.83;;;24.80;99.90;;;;;;5023745;28;20175;-81
2023/08/13 06:36:20;;;;;;;2.70;1.83;;;25.80;99.90;;;;;;5038849;28;20228;-79
2023/08/13 06:38:46;;;;;;;2.60;1.73;;;26.70;99.90;;;;;;5043729;28;20206;-77
2023/08/13 06:41:11;;;;;;;2.72;1.80;;;27.20;99.90;;;;;;5045478;28;20183;-80
2023/08/13 06:43:37;;;;;;;2.28;1.77;;;27.30;99.90;;;;;;5049960;28;20174;-80
2023/08/13 06:46:03;;;;;;;4.63;2.10;;;27.20;99.90;;;;;;5025856;28;20215;-82
2023/08/13 06:48:33;;;;;;;2.67;1.65;;;27.40;99.90;;;;;;5027124;28;20202;-78
2023/08/13 06:50:58;;;;;;;3.05;2.05;;;27.80;99.90;;;;;;5028787;28;20237;-82
2023/08/13 06:53:25;;;;;;;2.25;1.90;;;28.30;99.90;;;;;;5018563;28;20182;-81
2023/08/13 06:55:51;;;;;;;2.20;1.60;;;28.30;99.90;;;;;;5023847;28;20277;-81
2023/08/13 06:58:17;;;;;;;3.13;1.73;;;28.90;99.90;;;;;;5015632;28;20231;-80
2023/08/13 07:00:43;;;;;;;2.08;1.65;;;28.90;99.90;;;;;;5029352;28;20728;-80
2023/08/13 07:03:09;;;;;;;2.55;1.80;;;28.80;99.90;;;;;;5038478;28;20191;-82
2023/08/13 07:05:36;;;;;;;2.72;1.90;;;29.00;99.90;;;;;;5020769;28;20206;-81
2023/08/13 07:08:04;;;;;;;2.10;1.90;;;29.30;99.90;;;;;;5020231;28;20195;-81
2023/08/13 07:10:29;;;;;;;3.60;2.05;;;29.00;1.00;;;;;;5025874;28;20604;-80
2023/08/13 07:12:55;;;;;;;2.25;1.77;;;27.90;99.90;;;;;;5020450;28;20251;-81
2023/08/13 07:15:21;;;;;;;3.00;2.10;;;27.90;99.90;;;;;;5020738;28;20546;-81
2023/08/13 07:17:46;;;;;;;3.10;2.20;;;27.00;1.00;;;;;;5023123;28;20622;-81
2023/08/13 07:20:14;;;;;;;2.30;1.90;;;26.50;68.00;;;;;;5014222;28;20191;-81
2023/08/13 07:22:41;;;;;;;4.47;2.10;;;25.50;56.80;;;;;;5024400;28;20183;-82
2023/08/13 07:25:08;;;;;;;3.13;2.17;;;24.40;99.90;;;;;;5022339;28;20213;-81
2023/08/13 07:27:34;;;;;;;2.92;2.20;;;23.70;54.80;;;;;;5037195;28;20754;-80
2023/08/13 07:30:00;;;;;;;3.17;2.00;;;23.40;99.90;;;;;;5035926;28;20188;-80
2023/08/13 07:32:27;;;;;;;4.60;2.35;;;23.00;99.90;;;;;;5016705;28;20175;-80
2023/08/13 07:34:53;;;;;;;2.17;1.95;;;22.70;99.90;;;;;;5016835;28;20183;-80
2023/08/13 07:37:18;;;;;;;5.53;2.10;;;22.50;99.90;;;;;;5016773;28;20255;-80
2023/08/13 07:39:44;;;;;;;4.95;2.22;;;22.60;99.90;;;;;;5038310;28;20179;-80
2023/08/13 07:42:09;;;;;;;2.78;2.10;;;24.00;99.90;;;;;;5055863;28;20178;-83
2023/08/13 07:44:36;;;;;;;2.45;2.15;;;22.90;99.90;;;;;;5039247;28;20212;-80
2023/08/13 07:47:01;;;;;;;2.88;2.20;;;22.90;99.90;;;;;;5038792;28;20636;-82
2023/08/13 07:49:27;;;;;;;3.10;2.20;;;22.90;99.90;;;;;;5039361;28;20233;-81
2023/08/13 07:51:53;;;;;;;4.97;2.30;;;22.60;99.90;;;;;;5043663;28;20182;-81
2023/08/13 07:54:20;;;;;;;3.35;2.42;;;22.40;99.90;;;;;;5036469;28;20191;-80
2023/08/13 07:56:46;;;;;;;3.60;2.53;;;22.20;99.90;;;;;;5037230;28;20785;-81
2023/08/13 07:59:11;;;;;;;2.92;2.47;;;22.10;99.90;;;;;;5037181;28;20185;-81
2023/08/13 08:01:37;;;;;;;4.47;2.67;;;22.10;99.90;;;;;;5019342;28;20191;-82
2023/08/13 08:04:04;;;;;;;6.20;2.50;;;22.00;99.90;;;;;;5036520;28;20182;-81
2023/08/13 08:06:29;;;;;;;3.72;2.30;;;22.10;99.90;;;;;;5037079;28;20183;-80
2023/08/13 08:08:55;;;;;;;4.22;2.55;;;22.20;99.90;;;;;;5036628;28;20175;-81
2023/08/13 08:11:21;;;;;;;3.30;2.22;;;22.30;99.90;;;;;;5018169;28;20222;-80
2023/08/13 08:13:48;;;;;;;4.60;2.30;;;22.50;99.90;;;;;;5034657;28;20190;-80
2023/08/13 08:16:15;;;;;;;3.78;2.28;;;22.80;99.90;;;;;;5023335;28;20190;-80
2023/08/13 08:18:40;;;;;;;5.32;2.60;;;22.90;99.90;;;;;;5028752;28;20206;-82
2023/08/13 08:21:06;;;;;;;4.85;2.88;;;22.90;99.90;;;;;;5020062;28;20221;-81
2023/08/13 08:23:33;;;;;;;5.25;2.53;;;22.90;99.90;;;;;;5032780;28;20175;-81
2023/08/13 08:25:59;;;;;;;3.50;2.38;;;22.70;99.90;;;;;;5022523;28;21102;-79
2023/08/13 08:28:25;;;;;;;3.38;2.15;;;22.70;99.90;;;;;;5057808;28;20214;-80
2023/08/13 08:30:51;;;;;;;5.72;2.60;;;22.70;99.90;;;;;;5036767;28;20269;-81
2023/08/13 08:33:16;;;;;;;4.18;2.60;;;22.60;99.90;;;;;;5035809;28;20217;-80
2023/08/13 08:35:42;;;;;;;3.67;2.35;;;22.60;99.90;;;;;;5017515;28;20221;-82
2023/08/13 08:38:08;;;;;;;5.35;2.95;;;22.70;99.90;;;;;;5038886;28;20247;-81
2023/08/13 08:40:33;;;;;;;7.35;2.90;;;23.00;99.90;;;;;;5016580;28;20179;-80
2023/08/13 08:42:59;;;;;;;3.78;2.20;;;23.10;99.90;;;;;;5035270;28;20555;-82
2023/08/13 08:45:25;;;;;;;3.95;2.50;;;23.30;99.90;;;;;;5035009;28;20207;-82
2023/08/13 08:47:52;;;;;;;3.00;2.58;;;23.60;99.90;;;;;;5043204;28;20206;-80
2023/08/13 08:50:17;;;;;;;4.00;3.20;;;23.90;99.90;;;;;;5015233;28;20225;-81
2023/08/13 08:52:43;;;;;;;4.35;2.53;;;24.30;99.90;;;;;;5033749;28;20179;-80
2023/08/13 08:55:11;;;;;;;5.07;2.75;;;24.50;99.90;;;;;;5015703;28;20652;-79
2023/08/13 08:57:38;;;;;;;5.90;2.90;;;24.30;99.90;;;;;;5033007;28;20632;-81
2023/08/13 09:00:04;;;;;;;4.43;2.58;;;24.40;99.90;;;;;;5014933;28;20179;-81
2023/08/13 09:02:30;;;;;;;3.38;2.28;;;24.20;97.20;;;;;;5033614;28;20528;-83
2023/08/13 09:04:57;;;;;;;4.28;2.80;;;24.20;99.90;;;;;;5016371;28;20209;-83
2023/08/13 09:07:32;;;;;;;4.60;2.50;;;23.90;95.30;;;;;;5045992;28;20206;-82
2023/08/13 09:09:58;;;;;;;3.45;2.85;;;23.70;94.50;;;;;;5036912;28;20193;-81
2023/08/13 09:12:23;;;;;;;4.18;2.55;;;23.60;97.20;;;;;;5046985;28;20182;-78
2023/08/13 09:14:55;;;;;;;3.92;2.75;;;23.60;99.90;;;;;;5053974;28;20543;-84
2023/08/13 09:17:25;;;;;;;4.15;2.40;;;23.70;60.00;;;;;;5034987;28;20201;-83
2023/08/13 09:19:52;;;;;;;5.65;2.70;;;23.90;81.40;;;;;;5036469;28;20185;-82
2023/08/13 09:22:17;;;;;;;4.43;2.47;;;24.00;64.50;;;;;;5035581;28;20182;-81
2023/08/13 09:24:46;;;;;;;4.90;2.72;;;24.10;91.60;;;;;;5013023;28;20556;-81
2023/08/13 09:27:12;;;;;;;3.83;2.25;;;24.10;92.10;;;;;;5032560;28;20333;-79
2023/08/13 09:29:38;;;;;;;3.92;2.63;;;24.00;47.10;;;;;;5033354;28;20203;-82
2023/08/13 09:32:04;;;;;;;3.92;2.53;;;23.90;34.20;;;;;;5015391;28;20171;-81
2023/08/13 09:34:32;;;;;;;5.15;2.35;;;23.90;72.30;;;;;;5033051;28;20183;-81
2023/08/13 09:36:59;;;;;;;6.03;2.47;;;24.00;90.10;;;;;;5033143;28;20194;-81
2023/08/13 09:39:26;;;;;;;5.28;2.42;;;24.10;26.70;;;;;;5033374;28;20237;-80
2023/08/13 09:41:53;;;;;;;5.38;2.55;;;24.10;76.80;;;;;;5015374;28;20183;-82
2023/08/13 09:44:20;;;;;;;4.50;2.60;;;24.00;54.60;;;;;;5033584;28;20329;-81
2023/08/13 09:46:51;;;;;;;3.63;2.13;;;24.00;53.30;;;;;;5016667;28;20209;-81
2023/08/13 09:49:17;;;;;;;4.82;2.40;;;24.20;64.30;;;;;;5034215;28;20175;-83
2023/08/13 09:51:46;;;;;;;7.32;3.00;;;24.30;50.60;;;;;;5016451;28;20179;-82
2023/08/13 09:54:20;;;;;;;3.03;2.20;;;24.70;69.20;;;;;;5015765;28;20197;-81
2023/08/13 09:56:53;;;;;;;5.50;2.47;;;24.70;53.90;;;;;;5032736;28;20190;-81
2023/08/13 09:59:18;;;;;;;4.43;2.42;;;24.70;8.80;;;;;;5032642;28;20274;-81
2023/08/13 10:01:45;;;;;;;4.85;2.38;;;24.70;12.90;;;;;;5013343;28;20660;-82
2023/08/13 10:04:11;;;;;;;5.53;2.60;;;24.70;14.60;;;;;;5014699;28;20559;-84
2023/08/13 10:06:38;;;;;;;3.58;2.38;;;24.50;1.60;;;;;;5034771;28;20752;-83
2023/08/13 10:09:04;;;;;;;4.13;2.42;;;24.60;9.40;;;;;;5017869;28;20175;-82
2023/08/13 10:11:30;;;;;;;4.78;2.50;;;24.50;19.50;;;;;;5017157;28;20198;-84
2023/08/13 10:13:56;;;;;;;3.80;1.92;;;24.70;13.40;;;;;;5017472;28;20175;-81
2023/08/13 10:16:22;;;;;;;4.03;2.25;;;24.80;1.00;;;;;;5017202;28;20595;-82
2023/08/13 10:18:47;;;;;;;5.32;2.28;;;24.90;1.00;;;;;;5018223;28;20202;-84
2023/08/13 10:21:14;;;;;;;6.03;2.05;;;25.10;1.00;;;;;;5018014;28;20190;-83
2023/08/13 10:23:40;;;;;;;5.28;2.55;;;24.90;1.00;;;;;;5040286;28;20181;-84
2023/08/13 10:26:07;;;;;;;5.63;2.58;;;25.00;1.00;;;;;;5037327;28;20237;-82
2023/08/13 10:28:34;;;;;;;4.25;2.20;;;25.20;1.00;;;;;;5041032;28;20228;-84
2023/08/13 10:31:29;;;;;;;4.70;2.33;;;25.50;1.00;;;;;;5043321;28;20667;-80
2023/08/13 10:34:11;;;;;;;5.00;2.30;;;25.60;1.00;;;;;;5035381;28;20217;-80
2023/08/13 10:36:45;;;;;;;4.40;2.20;;;25.20;1.00;;;;;;5036455;28;20163;-80
2023/08/13 10:39:33;;;;;;;3.17;2.13;;;25.50;1.00;;;;;;5036146;28;20175;-81
2023/08/13 10:42:01;;;;;;;5.25;2.17;;;25.40;1.00;;;;;;5020895;28;20178;-80
2023/08/13 10:44:31;;;;;;;8.48;2.22;;;25.70;1.00;;;;;;5043876;28;20214;-81
2023/08/13 10:46:57;;;;;;;4.32;2.40;;;25.30;1.00;;;;;;5025136;28;20262;-82
2023/08/13 10:49:24;;;;;;;4.68;2.13;;;25.40;1.00;;;;;;5040262;28;20170;-81
2023/08/13 10:51:50;;;;;;;5.47;2.72;;;25.40;1.00;;;;;;5063548;28;20300;-82
2023/08/13 10:54:17;;;;;;;5.43;2.60;;;25.30;1.00;;;;;;5061098;28;20201;-82
2023/08/13 10:56:45;;;;;;;3.85;2.30;;;25.50;1.00;;;;;;5060654;28;20170;-81
2023/08/13 10:59:13;;;;;;;5.03;2.20;;;25.40;1.00;;;;;;5061455;28;20232;-80
2023/08/13 11:02:09;;;;;;;5.53;2.42;;;25.60;1.00;;;;;;5042958;28;20638;-80
2023/08/13 11:04:36;;;;;;;4.95;2.53;;;25.30;1.00;;;;;;5060301;28;20190;-81
2023/08/13 11:07:01;;;;;;;2.88;2.25;;;25.50;1.00;;;;;;5059613;28;20198;-80
2023/08/13 11:09:30;;;;;;;4.68;2.35;;;25.30;1.00;;;;;;5032033;28;20171;-81
2023/08/13 11:11:56;;;;;;;4.85;2.42;;;25.30;1.00;;;;;;5040379;28;20190;-81
2023/08/13 11:14:22;;;;;;;4.90;2.45;;;25.30;1.00;;;;;;5021425;28;20194;-81
2023/08/13 11:16:47;;;;;;;4.45;2.40;;;25.50;1.00;;;;;;5021905;28;20570;-81
2023/08/13 11:19:13;;;;;;;3.75;2.47;;;25.30;1.00;;;;;;5039510;28;20190;-81
2023/08/13 11:21:39;;;;;;;4.18;2.20;;;25.60;1.00;;;;;;5021859;28;20186;-82
2023/08/13 11:24:08;;;;;;;5.85;2.50;;;25.60;1.00;;;;;;5039257;28;20265;-82
2023/08/13 11:26:37;;;;;;;3.97;2.13;;;25.60;1.00;;;;;;5021038;28;20217;-81
2023/08/13 11:29:02;;;;;;;2.83;2.00;;;25.70;1.00;;;;;;5036634;28;20175;-81
2023/08/13 11:31:28;;;;;;;4.13;2.22;;;26.00;1.00;;;;;;5039120;28;20179;-82
2023/08/13 11:33:54;;;;;;;5.78;2.40;;;25.80;1.00;;;;;;5039790;28;20194;-80
2023/08/13 11:36:20;;;;;;;3.58;2.00;;;25.50;1.00;;;;;;5036155;28;20187;-80
2023/08/13 11:38:45;;;;;;;4.53;2.30;;;25.30;1.00;;;;;;5033087;28;20199;-80
2023/08/13 11:41:14;;;;;;;7.00;2.60;;;25.40;1.00;;;;;;5015650;28;20222;-81
2023/08/13 11:43:40;;;;;;;4.20;2.30;;;25.30;1.00;;;;;;5015134;28;20214;-80
2023/08/13 11:46:05;;;;;;;4.10;2.30;;;25.40;1.00;;;;;;5013716;28;20262;-81
2023/08/13 11:48:32;;;;;;;5.40;2.60;;;25.30;1.00;;;;;;4995454;28;20184;-81
2023/08/13 11:51:14;;;;;;;3.67;2.10;;;24.80;1.00;;;;;;4995733;28;20281;-81
2023/08/13 11:53:49;;;;;;;7.53;2.42;;;24.60;1.00;;;;;;5013379;28;20167;-81
2023/08/13 11:56:16;;;;;;;4.18;1.90;;;24.40;1.00;;;;;;5013236;28;20609;-81
2023/08/13 11:58:42;;;;;;;4.05;2.25;;;24.60;1.00;;;;;;5013460;28;20271;-81
2023/08/13 12:01:12;;;;;;;5.60;2.70;;;24.90;1.00;;;;;;5015592;28;20191;-81
2023/08/13 12:03:40;;;;;;;4.22;2.58;;;25.00;1.00;;;;;;4997581;28;20179;-81
2023/08/13 12:06:07;;;;;;;4.75;2.28;;;25.10;1.00;;;;;;5014860;28;20594;-81
2023/08/13 12:08:33;;;;;;;5.28;2.58;;;25.20;1.00;;;;;;4997322;28;20206;-80
2023/08/13 12:10:58;;;;;;;3.95;2.13;;;25.30;1.00;;;;;;5014943;28;20183;-80
2023/08/13 12:13:25;;;;;;;4.80;2.53;;;25.10;1.00;;;;;;5014714;28;20271;-80
2023/08/13 12:15:50;;;;;;;3.83;2.25;;;25.10;1.00;;;;;;5014784;28;20179;-80
2023/08/13 12:18:16;;;;;;;3.17;1.88;;;25.30;1.00;;;;;;5014846;28;20611;-82
2023/08/13 12:20:42;;;;;;;4.18;2.05;;;25.10;1.00;;;;;;5015122;28;20184;-80
2023/08/13 12:23:08;;;;;;;3.67;1.95;;;25.20;1.00;;;;;;4996665;28;20704;-80
2023/08/13 12:25:34;;;;;;;5.03;2.45;;;25.20;1.00;;;;;;5014644;28;20199;-80
2023/08/13 12:27:59;;;;;;;5.10;2.72;;;25.00;1.00;;;;;;4996708;28;20222;-80
2023/08/13 12:30:25;;;;;;;4.20;2.20;;;25.10;1.00;;;;;;4997193;28;20606;-80
2023/08/13 12:32:51;;;;;;;4.93;2.10;;;25.40;1.00;;;;;;5014377;28;20179;-80
2023/08/13 12:35:16;;;;;;;5.35;2.30;;;25.60;1.00;;;;;;4996799;28;20176;-80
2023/08/13 12:37:42;;;;;;;5.00;2.03;;;25.50;1.00;;;;;;5014361;28;20744;-81
2023/08/13 12:40:11;;;;;;;4.10;2.22;;;25.60;1.00;;;;;;4996432;28;20240;-89
2023/08/13 12:42:37;;;;;;;4.78;2.25;;;25.60;1.00;;;;;;4997160;28;20183;-88
2023/08/13 12:45:05;;;;;;;4.72;2.20;;;25.70;96.70;;;;;;4997390;28;20208;-85
2023/08/13 12:47:35;;;;;;;5.55;2.38;;;25.80;1.00;;;;;;4996576;28;20234;-84
2023/08/13 12:50:05;;;;;;;4.05;2.28;;;25.80;1.00;;;;;;4996324;28;20176;-87
2023/08/13 12:52:35;;;;;;;4.47;2.38;;;25.70;1.00;;;;;;5020638;28;20936;-86
2023/08/13 12:55:01;;;;;;;3.40;2.17;;;25.90;1.00;;;;;;5010068;28;20215;-85